sensor_id;sensor_type;location;lat;lon;timestamp;P1;durP1;ratioP1;P2;durP2;ratioP2
18267;SDS011;9260;49.998;19.880;2022-11-12T00:07:36;245.13;;;116.30;;
18267;SDS011;9260;49.998;19.880;2022-11-12T00:17:58;245.30;;;112.63;;
18267;SDS011;9260;49.998;19.880;2022-11-12T00:28:21;233.47;;;111.03;;
18267;SDS011;9260;49.998;19.880;2022-11-12T00:38:44;220.33;;;103.67;;
18267;SDS011;9260;49.998;19.880;2022-11-12T00:49:07;239.27;;;109.03;;
18267;SDS011;9260;49.998;19.880;2022-11-12T00:59:29;227.87;;;103.57;;
18267;SDS011;9260;49.998;19.880;2022-11-12T01:09:52;233.07;;;108.47;;
18267;SDS011;9260;49.998;19.880;2022-11-12T01:20:14;222.80;;;105.80;;
18267;SDS011;9260;49.998;19.880;2022-11-12T01:30:38;233.03;;;108.17;;
18267;SDS011;9260;49.998;19.880;2022-11-12T01:41:00;228.73;;;107.93;;
18267;SDS011;9260;49.998;19.880;2022-11-12T01:51:24;234.03;;;108.93;;
18267;SDS011;9260;49.998;19.880;2022-11-12T02:01:53;218.53;;;100.93;;
18267;SDS011;9260;49.998;19.880;2022-11-12T02:12:16;224.47;;;100.57;;
18267;SDS011;9260;49.998;19.880;2022-11-12T02:22:53;223.50;;;102.90;;
18267;SDS011;9260;49.998;19.880;2022-11-12T02:33:16;227.63;;;103.73;;
18267;SDS011;9260;49.998;19.880;2022-11-12T02:43:39;239.47;;;108.77;;
18267;SDS011;9260;49.998;19.880;2022-11-12T02:54:01;231.30;;;104.67;;
18267;SDS011;9260;49.998;19.880;2022-11-12T03:04:24;221.57;;;104.57;;
18267;SDS011;9260;49.998;19.880;2022-11-12T03:14:46;227.30;;;102.77;;
18267;SDS011;9260;49.998;19.880;2022-11-12T03:25:10;220.70;;;102.77;;
18267;SDS011;9260;49.998;19.880;2022-11-12T03:35:32;229.97;;;106.13;;
18267;SDS011;9260;49.998;19.880;2022-11-12T03:45:56;236.20;;;111.50;;
18267;SDS011;9260;49.998;19.880;2022-11-12T03:56:18;228.23;;;104.97;;
18267;SDS011;9260;49.998;19.880;2022-11-12T04:06:42;224.53;;;106.40;;
18267;SDS011;9260;49.998;19.880;2022-11-12T04:17:21;213.47;;;99.67;;
18267;SDS011;9260;49.998;19.880;2022-11-12T04:28:02;226.03;;;103.50;;
18267;SDS011;9260;49.998;19.880;2022-11-12T04:38:24;216.90;;;98.70;;
18267;SDS011;9260;49.998;19.880;2022-11-12T04:48:48;219.23;;;100.73;;
18267;SDS011;9260;49.998;19.880;2022-11-12T04:59:09;222.63;;;102.50;;
18267;SDS011;9260;49.998;19.880;2022-11-12T05:09:33;225.20;;;100.70;;
18267;SDS011;9260;49.998;19.880;2022-11-12T05:19:55;219.00;;;101.17;;
18267;SDS011;9260;49.998;19.880;2022-11-12T05:30:18;216.47;;;97.47;;
18267;SDS011;9260;49.998;19.880;2022-11-12T05:40:43;218.60;;;96.60;;
18267;SDS011;9260;49.998;19.880;2022-11-12T05:51:06;220.00;;;102.90;;
18267;SDS011;9260;49.998;19.880;2022-11-12T06:01:33;220.57;;;100.60;;
18267;SDS011;9260;49.998;19.880;2022-11-12T06:11:58;217.57;;;101.53;;
18267;SDS011;9260;49.998;19.880;2022-11-12T06:22:25;223.27;;;100.83;;
18267;SDS011;9260;49.998;19.880;2022-11-12T06:32:49;221.53;;;101.33;;
18267;SDS011;9260;49.998;19.880;2022-11-12T06:43:11;230.80;;;105.67;;
18267;SDS011;9260;49.998;19.880;2022-11-12T06:53:34;232.90;;;109.90;;
18267;SDS011;9260;49.998;19.880;2022-11-12T07:03:56;234.60;;;108.73;;
18267;SDS011;9260;49.998;19.880;2022-11-12T07:14:19;234.97;;;109.10;;
18267;SDS011;9260;49.998;19.880;2022-11-12T07:24:41;235.67;;;111.70;;
18267;SDS011;9260;49.998;19.880;2022-11-12T07:35:05;233.67;;;106.33;;
18267;SDS011;9260;49.998;19.880;2022-11-12T07:45:28;230.53;;;108.17;;
18267;SDS011;9260;49.998;19.880;2022-11-12T07:55:55;230.40;;;108.90;;
18267;SDS011;9260;49.998;19.880;2022-11-12T08:06:19;242.83;;;117.93;;
18267;SDS011;9260;49.998;19.880;2022-11-12T08:16:42;226.90;;;112.60;;
18267;SDS011;9260;49.998;19.880;2022-11-12T08:27:05;230.90;;;111.50;;
18267;SDS011;9260;49.998;19.880;2022-11-12T08:37:28;228.93;;;117.27;;
18267;SDS011;9260;49.998;19.880;2022-11-12T08:47:50;226.07;;;119.43;;
18267;SDS011;9260;49.998;19.880;2022-11-12T08:58:13;218.37;;;113.77;;
18267;SDS011;9260;49.998;19.880;2022-11-12T09:08:35;212.17;;;116.90;;
18267;SDS011;9260;49.998;19.880;2022-11-12T09:19:00;220.90;;;127.43;;
18267;SDS011;9260;49.998;19.880;2022-11-12T09:29:22;219.10;;;131.67;;
18267;SDS011;9260;49.998;19.880;2022-11-12T09:39:45;206.47;;;119.13;;
18267;SDS011;9260;49.998;19.880;2022-11-12T09:50:12;218.90;;;133.57;;
18267;SDS011;9260;49.998;19.880;2022-11-12T10:00:46;216.50;;;138.97;;
18267;SDS011;9260;49.998;19.880;2022-11-12T10:22:42;203.93;;;129.38;;
18267;SDS011;9260;49.998;19.880;2022-11-12T10:33:20;199.65;;;128.30;;
18267;SDS011;9260;49.998;19.880;2022-11-12T10:43:44;191.68;;;122.47;;
18267;SDS011;9260;49.998;19.880;2022-11-12T10:54:18;200.13;;;132.63;;
18267;SDS011;9260;49.998;19.880;2022-11-12T11:04:50;207.00;;;132.60;;
18267;SDS011;9260;49.998;19.880;2022-11-12T11:15:17;201.73;;;134.30;;
18267;SDS011;9260;49.998;19.880;2022-11-12T11:25:42;195.05;;;132.02;;
18267;SDS011;9260;49.998;19.880;2022-11-12T11:36:10;191.48;;;130.65;;
18267;SDS011;9260;49.998;19.880;2022-11-12T11:46:46;194.32;;;138.02;;
18267;SDS011;9260;49.998;19.880;2022-11-12T11:57:20;188.15;;;131.95;;
18267;SDS011;9260;49.998;19.880;2022-11-12T12:07:49;193.48;;;134.75;;
18267;SDS011;9260;49.998;19.880;2022-11-12T12:18:22;189.85;;;129.48;;
18267;SDS011;9260;49.998;19.880;2022-11-12T12:28:56;188.07;;;128.40;;
18267;SDS011;9260;49.998;19.880;2022-11-12T12:39:25;185.38;;;121.28;;
18267;SDS011;9260;49.998;19.880;2022-11-12T12:49:56;185.25;;;121.80;;
18267;SDS011;9260;49.998;19.880;2022-11-12T13:00:23;190.65;;;127.20;;
18267;SDS011;9260;49.998;19.880;2022-11-12T13:10:50;189.95;;;118.03;;
18267;SDS011;9260;49.998;19.880;2022-11-12T13:21:13;192.70;;;119.00;;
18267;SDS011;9260;49.998;19.880;2022-11-12T13:31:38;194.65;;;121.85;;
18267;SDS011;9260;49.998;19.880;2022-11-12T13:42:01;195.15;;;117.35;;
18267;SDS011;9260;49.998;19.880;2022-11-12T13:52:52;200.67;;;117.17;;
18267;SDS011;9260;49.998;19.880;2022-11-12T14:03:15;206.90;;;125.17;;
18267;SDS011;9260;49.998;19.880;2022-11-12T14:13:46;201.77;;;115.43;;
18267;SDS011;9260;49.998;19.880;2022-11-12T14:24:17;214.30;;;115.97;;
18267;SDS011;9260;49.998;19.880;2022-11-12T14:34:42;209.63;;;105.60;;
18267;SDS011;9260;49.998;19.880;2022-11-12T14:45:04;212.57;;;103.40;;
18267;SDS011;9260;49.998;19.880;2022-11-12T14:55:36;212.13;;;101.50;;
18267;SDS011;9260;49.998;19.880;2022-11-12T15:06:07;214.93;;;100.83;;
18267;SDS011;9260;49.998;19.880;2022-11-12T15:16:33;215.00;;;98.40;;
18267;SDS011;9260;49.998;19.880;2022-11-12T15:26:56;208.03;;;96.70;;
18267;SDS011;9260;49.998;19.880;2022-11-12T15:37:23;221.87;;;116.37;;
18267;SDS011;9260;49.998;19.880;2022-11-12T15:47:48;210.97;;;105.33;;
18267;SDS011;9260;49.998;19.880;2022-11-12T15:58:13;216.97;;;108.20;;
18267;SDS011;9260;49.998;19.880;2022-11-12T16:08:39;219.13;;;115.23;;
18267;SDS011;9260;49.998;19.880;2022-11-12T16:19:02;207.17;;;99.47;;
18267;SDS011;9260;49.998;19.880;2022-11-12T16:29:29;213.87;;;112.90;;
18267;SDS011;9260;49.998;19.880;2022-11-12T16:39:53;215.90;;;111.83;;
18267;SDS011;9260;49.998;19.880;2022-11-12T16:50:16;212.07;;;107.70;;
18267;SDS011;9260;49.998;19.880;2022-11-12T17:00:43;229.03;;;113.03;;
18267;SDS011;9260;49.998;19.880;2022-11-12T17:11:07;224.07;;;117.73;;
18267;SDS011;9260;49.998;19.880;2022-11-12T17:21:31;222.20;;;109.43;;
18267;SDS011;9260;49.998;19.880;2022-11-12T17:31:53;219.03;;;107.50;;
18267;SDS011;9260;49.998;19.880;2022-11-12T17:42:16;224.87;;;115.80;;
18267;SDS011;9260;49.998;19.880;2022-11-12T17:52:39;225.17;;;114.03;;
18267;SDS011;9260;49.998;19.880;2022-11-12T18:03:02;221.53;;;112.27;;
18267;SDS011;9260;49.998;19.880;2022-11-12T18:13:25;223.97;;;115.90;;
18267;SDS011;9260;49.998;19.880;2022-11-12T18:23:49;234.77;;;121.70;;
18267;SDS011;9260;49.998;19.880;2022-11-12T18:34:12;223.27;;;110.43;;
18267;SDS011;9260;49.998;19.880;2022-11-12T18:44:36;228.77;;;115.60;;
18267;SDS011;9260;49.998;19.880;2022-11-12T18:54:58;227.73;;;110.07;;
18267;SDS011;9260;49.998;19.880;2022-11-12T19:05:23;214.20;;;93.83;;
18267;SDS011;9260;49.998;19.880;2022-11-12T19:15:45;222.80;;;101.57;;
18267;SDS011;9260;49.998;19.880;2022-11-12T19:26:09;232.50;;;118.03;;
18267;SDS011;9260;49.998;19.880;2022-11-12T19:36:33;227.63;;;111.87;;
18267;SDS011;9260;49.998;19.880;2022-11-12T19:46:56;238.37;;;119.73;;
18267;SDS011;9260;49.998;19.880;2022-11-12T19:57:19;233.50;;;112.70;;
18267;SDS011;9260;49.998;19.880;2022-11-12T20:07:43;242.17;;;119.43;;
18267;SDS011;9260;49.998;19.880;2022-11-12T20:18:08;236.43;;;118.87;;
18267;SDS011;9260;49.998;19.880;2022-11-12T20:28:32;233.30;;;101.60;;
18267;SDS011;9260;49.998;19.880;2022-11-12T20:38:55;230.80;;;100.83;;
18267;SDS011;9260;49.998;19.880;2022-11-12T20:49:19;227.10;;;102.13;;
18267;SDS011;9260;49.998;19.880;2022-11-12T20:59:41;229.97;;;104.13;;
18267;SDS011;9260;49.998;19.880;2022-11-12T21:10:05;219.67;;;96.50;;
18267;SDS011;9260;49.998;19.880;2022-11-12T21:20:28;229.23;;;101.33;;
18267;SDS011;9260;49.998;19.880;2022-11-12T21:30:51;223.60;;;100.90;;
18267;SDS011;9260;49.998;19.880;2022-11-12T21:41:14;226.07;;;100.10;;
18267;SDS011;9260;49.998;19.880;2022-11-12T21:51:39;229.90;;;105.60;;
18267;SDS011;9260;49.998;19.880;2022-11-12T22:02:02;233.73;;;108.50;;
18267;SDS011;9260;49.998;19.880;2022-11-12T22:12:25;241.40;;;119.47;;
18267;SDS011;9260;49.998;19.880;2022-11-12T22:22:49;230.60;;;104.33;;
18267;SDS011;9260;49.998;19.880;2022-11-12T22:33:13;222.80;;;96.83;;
18267;SDS011;9260;49.998;19.880;2022-11-12T22:43:36;231.50;;;102.53;;
18267;SDS011;9260;49.998;19.880;2022-11-12T22:54:00;232.17;;;103.60;;
18267;SDS011;9260;49.998;19.880;2022-11-12T23:04:23;231.37;;;100.43;;
18267;SDS011;9260;49.998;19.880;2022-11-12T23:14:47;237.10;;;103.63;;
18267;SDS011;9260;49.998;19.880;2022-11-12T23:25:09;226.13;;;97.97;;
18267;SDS011;9260;49.998;19.880;2022-11-12T23:35:32;231.17;;;104.60;;
18267;SDS011;9260;49.998;19.880;2022-11-12T23:45:55;225.80;;;97.97;;
18267;SDS011;9260;49.998;19.880;2022-11-12T23:56:19;227.47;;;103.03;;
